KSUS/SUS METAR and TAF weather

Enter ICAO airport designator
Station Type Date Time Source
KSUS METAR 2020/10/20 16:54 UTC NOAA

KSUS 201654Z 11008KT 4SM -TSRA BR OVC012 10/08 A3013 RMK AO2 LTG DSNT W RAB00E20B21 TSB40 SLP206 P0004 T01000078


Station Type Date Time Source
KSUS Decoded METAR 2020/10/20 16:54 UTC NOAA

SPIRIT OF ST. LOUIS AIRPORT , MO, United States (KSUS) 38-39N 090-39W 141M
Oct 20, 2020 - 12:54 PM EDT / 2020.10.20 1654 UTC
Wind: from the ESE (110 degrees) at 9 MPH (8 KT):0
Visibility: 4 mile(s):0
Sky conditions: overcast
Weather: light rain with thunder; mist; Lightning observed
Precipitation last hour: 0.04 inches
Temperature: 50.0 F (10.0 C)
Dew Point: 46.0 F (7.8 C)
Relative Humidity: 86%
Pressure (altimeter): 30.13 in. Hg (1020 hPa)
ob: KSUS 201654Z 11008KT 4SM -TSRA BR OVC012 10/08 A3013 RMK AO2 LTG DSNT W RAB00E20B21 TSB40 SLP206 P0004 T01000078
cycle: 17

Station Type Date Time Source
KSUS TAF 2020/10/20 16:18 UTC NOAA

TAF
AMD KSUS 201615Z 2016/2112 09005KT P6SM VCSH OVC010
TEMPO 2016/2018 4SM TSRA OVC008CB
FM202100 14009KT P6SM OVC015
FM210200 21007KT 6SM SHRA OVC015
FM210700 29007KT P6SM BKN035

Example: see airport list